sensor_id;sensor_type;location;lat;lon;timestamp;pressure;altitude;pressure_sealevel;temperature;humidity
70488;BME280;57976;48.174;16.370;2023-03-21T00:01:39;99388.10;;;12.20;72.45
70488;BME280;57976;48.174;16.370;2023-03-21T00:03:44;99385.39;;;12.19;72.86
70488;BME280;57976;48.174;16.370;2023-03-21T00:05:49;99383.30;;;12.19;72.63
70488;BME280;57976;48.174;16.370;2023-03-21T00:07:53;99382.66;;;12.18;72.78
70488;BME280;57976;48.174;16.370;2023-03-21T00:09:58;99386.05;;;12.19;72.65
70488;BME280;57976;48.174;16.370;2023-03-21T00:12:18;99385.86;;;12.18;72.81
70488;BME280;57976;48.174;16.370;2023-03-21T00:14:23;99382.73;;;12.19;72.70
70488;BME280;57976;48.174;16.370;2023-03-21T00:16:28;99380.64;;;12.18;72.71
70488;BME280;57976;48.174;16.370;2023-03-21T00:18:42;99377.73;;;12.18;72.88
70488;BME280;57976;48.174;16.370;2023-03-21T00:20:56;99379.77;;;12.20;73.01
70488;BME280;57976;48.174;16.370;2023-03-21T00:23:21;99376.61;;;12.19;72.83
70488;BME280;57976;48.174;16.370;2023-03-21T00:25:25;99378.49;;;12.21;72.88
70488;BME280;57976;48.174;16.370;2023-03-21T00:27:30;99377.09;;;12.23;72.82
70488;BME280;57976;48.174;16.370;2023-03-21T00:29:54;99373.39;;;12.23;72.78
70488;BME280;57976;48.174;16.370;2023-03-21T00:31:59;99371.34;;;12.24;72.85
70488;BME280;57976;48.174;16.370;2023-03-21T00:34:04;99369.20;;;12.24;72.92
70488;BME280;57976;48.174;16.370;2023-03-21T00:36:10;99368.33;;;12.24;72.67
70488;BME280;57976;48.174;16.370;2023-03-21T00:38:16;99367.89;;;12.25;72.75
70488;BME280;57976;48.174;16.370;2023-03-21T00:40:21;99365.55;;;12.24;72.64
70488;BME280;57976;48.174;16.370;2023-03-21T00:42:38;99366.36;;;12.25;72.56
70488;BME280;57976;48.174;16.370;2023-03-21T00:44:43;99367.88;;;12.26;72.53
70488;BME280;57976;48.174;16.370;2023-03-21T00:46:48;99366.73;;;12.28;72.58
70488;BME280;57976;48.174;16.370;2023-03-21T00:49:10;99363.30;;;12.30;72.36
70488;BME280;57976;48.174;16.370;2023-03-21T00:51:21;99362.14;;;12.32;72.46
70488;BME280;57976;48.174;16.370;2023-03-21T00:53:27;99360.66;;;12.33;72.39
70488;BME280;57976;48.174;16.370;2023-03-21T00:55:32;99354.58;;;12.32;72.30
70488;BME280;57976;48.174;16.370;2023-03-21T00:57:37;99357.05;;;12.30;72.26
70488;BME280;57976;48.174;16.370;2023-03-21T00:59:43;99355.65;;;12.30;72.33
70488;BME280;57976;48.174;16.370;2023-03-21T01:01:48;99352.10;;;12.28;72.30
70488;BME280;57976;48.174;16.370;2023-03-21T01:03:52;99352.70;;;12.28;72.42
70488;BME280;57976;48.174;16.370;2023-03-21T01:05:57;99354.64;;;12.29;72.30
70488;BME280;57976;48.174;16.370;2023-03-21T01:08:02;99355.95;;;12.29;72.38
70488;BME280;57976;48.174;16.370;2023-03-21T01:10:17;99358.14;;;12.29;72.29
70488;BME280;57976;48.174;16.370;2023-03-21T01:12:22;99355.95;;;12.29;72.31
70488;BME280;57976;48.174;16.370;2023-03-21T01:14:27;99354.18;;;12.29;72.35
70488;BME280;57976;48.174;16.370;2023-03-21T01:16:32;99354.66;;;12.30;72.22
70488;BME280;57976;48.174;16.370;2023-03-21T01:18:39;99354.66;;;12.31;72.27
70488;BME280;57976;48.174;16.370;2023-03-21T01:20:44;99352.48;;;12.31;72.07
70488;BME280;57976;48.174;16.370;2023-03-21T01:22:49;99351.53;;;12.33;71.99
70488;BME280;57976;48.174;16.370;2023-03-21T01:24:56;99355.56;;;12.35;71.87
70488;BME280;57976;48.174;16.370;2023-03-21T01:27:22;99357.11;;;12.36;71.70
70488;BME280;57976;48.174;16.370;2023-03-21T01:29:27;99358.55;;;12.38;71.45
70488;BME280;57976;48.174;16.370;2023-03-21T01:31:34;99353.66;;;12.38;71.37
70488;BME280;57976;48.174;16.370;2023-03-21T01:33:38;99352.20;;;12.41;71.36
70488;BME280;57976;48.174;16.370;2023-03-21T01:35:44;99353.30;;;12.43;71.16
70488;BME280;57976;48.174;16.370;2023-03-21T01:38:05;99350.88;;;12.44;70.83
70488;BME280;57976;48.174;16.370;2023-03-21T01:40:12;99350.92;;;12.45;70.74
70488;BME280;57976;48.174;16.370;2023-03-21T01:42:20;99348.04;;;12.45;70.35
70488;BME280;57976;48.174;16.370;2023-03-21T01:44:26;99349.80;;;12.45;70.40
70488;BME280;57976;48.174;16.370;2023-03-21T01:46:40;99350.84;;;12.46;70.19
70488;BME280;57976;48.174;16.370;2023-03-21T01:49:34;99345.10;;;12.47;69.99
70488;BME280;57976;48.174;16.370;2023-03-21T01:51:49;99343.83;;;12.47;70.01
70488;BME280;57976;48.174;16.370;2023-03-21T01:53:58;99341.41;;;12.45;69.83
70488;BME280;57976;48.174;16.370;2023-03-21T01:56:10;99338.26;;;12.45;69.74
70488;BME280;57976;48.174;16.370;2023-03-21T01:58:40;99341.49;;;12.46;69.83
70488;BME280;57976;48.174;16.370;2023-03-21T02:01:03;99334.93;;;12.45;69.73
70488;BME280;57976;48.174;16.370;2023-03-21T02:03:19;99334.71;;;12.46;69.47
70488;BME280;57976;48.174;16.370;2023-03-21T02:06:01;99334.38;;;12.46;69.41
70488;BME280;57976;48.174;16.370;2023-03-21T02:08:13;99340.16;;;12.48;69.35
70488;BME280;57976;48.174;16.370;2023-03-21T02:10:18;99334.45;;;12.48;69.22
70488;BME280;57976;48.174;16.370;2023-03-21T02:12:27;99336.46;;;12.50;69.12
70488;BME280;57976;48.174;16.370;2023-03-21T02:14:33;99335.73;;;12.50;69.09
70488;BME280;57976;48.174;16.370;2023-03-21T02:16:52;99334.54;;;12.49;68.98
70488;BME280;57976;48.174;16.370;2023-03-21T02:19:14;99334.29;;;12.48;68.95
70488;BME280;57976;48.174;16.370;2023-03-21T02:27:12;99330.21;;;12.49;68.88
70488;BME280;57976;48.174;16.370;2023-03-21T02:29:42;99329.15;;;12.49;68.72
70488;BME280;57976;48.174;16.370;2023-03-21T02:31:58;99327.42;;;12.50;68.60
70488;BME280;57976;48.174;16.370;2023-03-21T02:34:43;99327.01;;;12.49;68.66
70488;BME280;57976;48.174;16.370;2023-03-21T02:36:59;99328.82;;;12.49;68.66
70488;BME280;57976;48.174;16.370;2023-03-21T02:39:12;99324.66;;;12.48;68.68
70488;BME280;57976;48.174;16.370;2023-03-21T02:41:20;99325.08;;;12.49;68.61
70488;BME280;57976;48.174;16.370;2023-03-21T02:43:41;99321.80;;;12.48;68.69
70488;BME280;57976;48.174;16.370;2023-03-21T02:45:50;99320.50;;;12.46;68.61
70488;BME280;57976;48.174;16.370;2023-03-21T02:48:00;99317.62;;;12.44;68.36
70488;BME280;57976;48.174;16.370;2023-03-21T02:50:12;99313.96;;;12.42;68.59
70488;BME280;57976;48.174;16.370;2023-03-21T02:52:21;99313.49;;;12.40;68.68
70488;BME280;57976;48.174;16.370;2023-03-21T02:54:44;99312.35;;;12.37;68.67
70488;BME280;57976;48.174;16.370;2023-03-21T02:56:56;99314.77;;;12.34;68.58
70488;BME280;57976;48.174;16.370;2023-03-21T02:59:03;99314.92;;;12.31;68.79
70488;BME280;57976;48.174;16.370;2023-03-21T03:01:09;99311.33;;;12.28;68.92
70488;BME280;57976;48.174;16.370;2023-03-21T03:03:19;99311.05;;;12.25;68.87
70488;BME280;57976;48.174;16.370;2023-03-21T03:05:42;99310.11;;;12.24;69.11
70488;BME280;57976;48.174;16.370;2023-03-21T03:07:57;99309.42;;;12.22;68.83
70488;BME280;57976;48.174;16.370;2023-03-21T03:10:14;99310.16;;;12.21;69.21
70488;BME280;57976;48.174;16.370;2023-03-21T03:12:30;99311.09;;;12.17;69.20
70488;BME280;57976;48.174;16.370;2023-03-21T03:14:48;99313.07;;;12.14;69.30
70488;BME280;57976;48.174;16.370;2023-03-21T03:17:24;99310.92;;;12.10;69.33
70488;BME280;57976;48.174;16.370;2023-03-21T03:19:37;99315.35;;;12.08;69.72
70488;BME280;57976;48.174;16.370;2023-03-21T03:21:57;99315.55;;;12.06;69.71
70488;BME280;57976;48.174;16.370;2023-03-21T03:24:07;99319.92;;;12.03;69.78
70488;BME280;57976;48.174;16.370;2023-03-21T03:26:16;99318.48;;;12.02;69.83
70488;BME280;57976;48.174;16.370;2023-03-21T03:28:25;99319.92;;;12.01;70.14
70488;BME280;57976;48.174;16.370;2023-03-21T03:30:31;99319.45;;;11.99;70.34
70488;BME280;57976;48.174;16.370;2023-03-21T03:32:56;99318.84;;;11.98;70.41
70488;BME280;57976;48.174;16.370;2023-03-21T03:35:05;99313.17;;;11.96;70.41
70488;BME280;57976;48.174;16.370;2023-03-21T03:37:15;99309.39;;;11.93;70.63
70488;BME280;57976;48.174;16.370;2023-03-21T03:39:21;99312.11;;;11.90;70.95
70488;BME280;57976;48.174;16.370;2023-03-21T03:41:36;99313.77;;;11.86;71.05
70488;BME280;57976;48.174;16.370;2023-03-21T03:44:07;99310.49;;;11.81;71.27
70488;BME280;57976;48.174;16.370;2023-03-21T03:46:17;99312.05;;;11.78;71.15
70488;BME280;57976;48.174;16.370;2023-03-21T03:48:25;99313.71;;;11.76;71.34
70488;BME280;57976;48.174;16.370;2023-03-21T03:50:37;99312.73;;;11.74;71.34
70488;BME280;57976;48.174;16.370;2023-03-21T03:52:50;99314.70;;;11.74;71.62
70488;BME280;57976;48.174;16.370;2023-03-21T03:55:03;99314.53;;;11.71;71.59
70488;BME280;57976;48.174;16.370;2023-03-21T03:57:12;99310.39;;;11.69;71.74
70488;BME280;57976;48.174;16.370;2023-03-21T03:59:17;99312.49;;;11.70;71.62
70488;BME280;57976;48.174;16.370;2023-03-21T04:01:41;99310.77;;;11.69;71.85
70488;BME280;57976;48.174;16.370;2023-03-21T04:03:47;99312.11;;;11.68;71.63
70488;BME280;57976;48.174;16.370;2023-03-21T04:06:02;99311.63;;;11.67;71.58
70488;BME280;57976;48.174;16.370;2023-03-21T04:08:07;99312.20;;;11.66;71.77
70488;BME280;57976;48.174;16.370;2023-03-21T04:10:17;99309.59;;;11.66;71.67
70488;BME280;57976;48.174;16.370;2023-03-21T04:12:22;99309.10;;;11.64;71.86
70488;BME280;57976;48.174;16.370;2023-03-21T04:14:45;99310.21;;;11.63;71.75
70488;BME280;57976;48.174;16.370;2023-03-21T04:16:53;99311.58;;;11.60;71.62
70488;BME280;57976;48.174;16.370;2023-03-21T04:18:57;99308.66;;;11.60;71.63
70488;BME280;57976;48.174;16.370;2023-03-21T04:21:02;99309.23;;;11.58;71.97
70488;BME280;57976;48.174;16.370;2023-03-21T04:23:10;99309.32;;;11.58;71.82
70488;BME280;57976;48.174;16.370;2023-03-21T04:25:18;99309.85;;;11.56;72.17
70488;BME280;57976;48.174;16.370;2023-03-21T04:27:37;99313.77;;;11.51;71.97
70488;BME280;57976;48.174;16.370;2023-03-21T04:30:00;99311.78;;;11.47;72.11
70488;BME280;57976;48.174;16.370;2023-03-21T04:32:28;99311.38;;;11.46;72.45
70488;BME280;57976;48.174;16.370;2023-03-21T04:34:41;99315.66;;;11.44;72.23
70488;BME280;57976;48.174;16.370;2023-03-21T04:36:45;99316.92;;;11.41;72.45
70488;BME280;57976;48.174;16.370;2023-03-21T04:38:50;99317.49;;;11.39;72.35
70488;BME280;57976;48.174;16.370;2023-03-21T04:40:55;99319.27;;;11.37;72.41
70488;BME280;57976;48.174;16.370;2023-03-21T04:43:00;99317.79;;;11.36;72.45
70488;BME280;57976;48.174;16.370;2023-03-21T04:45:06;99319.92;;;11.35;72.31
70488;BME280;57976;48.174;16.370;2023-03-21T04:47:11;99322.05;;;11.32;72.42
70488;BME280;57976;48.174;16.370;2023-03-21T04:49:16;99320.88;;;11.28;72.55
70488;BME280;57976;48.174;16.370;2023-03-21T04:51:21;99319.60;;;11.25;72.98
70488;BME280;57976;48.174;16.370;2023-03-21T04:53:25;99319.87;;;11.23;72.65
70488;BME280;57976;48.174;16.370;2023-03-21T04:55:30;99324.93;;;11.23;72.72
70488;BME280;57976;48.174;16.370;2023-03-21T04:57:35;99320.38;;;11.21;72.86
70488;BME280;57976;48.174;16.370;2023-03-21T04:59:40;99320.95;;;11.19;72.89
70488;BME280;57976;48.174;16.370;2023-03-21T05:01:45;99325.30;;;11.16;73.00
70488;BME280;57976;48.174;16.370;2023-03-21T05:03:50;99325.98;;;11.14;73.19
70488;BME280;57976;48.174;16.370;2023-03-21T05:05:54;99330.02;;;11.11;73.46
70488;BME280;57976;48.174;16.370;2023-03-21T05:07:59;99329.72;;;11.08;73.38
70488;BME280;57976;48.174;16.370;2023-03-21T05:10:05;99330.66;;;11.06;73.77
70488;BME280;57976;48.174;16.370;2023-03-21T05:12:10;99330.81;;;11.05;73.81
70488;BME280;57976;48.174;16.370;2023-03-21T05:14:17;99335.50;;;11.04;73.55
70488;BME280;57976;48.174;16.370;2023-03-21T05:16:22;99338.65;;;11.03;73.91
70488;BME280;57976;48.174;16.370;2023-03-21T05:18:30;99337.63;;;11.02;73.82
70488;BME280;57976;48.174;16.370;2023-03-21T05:20:41;99343.41;;;11.01;74.04
70488;BME280;57976;48.174;16.370;2023-03-21T05:22:46;99344.92;;;11.00;74.25
70488;BME280;57976;48.174;16.370;2023-03-21T05:24:51;99343.23;;;11.01;73.93
70488;BME280;57976;48.174;16.370;2023-03-21T05:27:10;99343.38;;;11.03;73.93
70488;BME280;57976;48.174;16.370;2023-03-21T05:29:19;99345.79;;;11.07;74.20
70488;BME280;57976;48.174;16.370;2023-03-21T05:31:43;99342.97;;;11.11;74.29
70488;BME280;57976;48.174;16.370;2023-03-21T05:33:48;99346.00;;;11.15;73.86
70488;BME280;57976;48.174;16.370;2023-03-21T05:35:54;99346.91;;;11.17;73.81
70488;BME280;57976;48.174;16.370;2023-03-21T05:38:00;99348.59;;;11.17;73.87
70488;BME280;57976;48.174;16.370;2023-03-21T05:40:09;99349.08;;;11.18;73.88
70488;BME280;57976;48.174;16.370;2023-03-21T05:42:15;99350.33;;;11.19;73.97
70488;BME280;57976;48.174;16.370;2023-03-21T05:44:20;99354.74;;;11.21;74.12
70488;BME280;57976;48.174;16.370;2023-03-21T05:46:25;99358.44;;;11.19;73.67
70488;BME280;57976;48.174;16.370;2023-03-21T05:48:30;99356.46;;;11.20;73.78
70488;BME280;57976;48.174;16.370;2023-03-21T05:50:44;99353.52;;;11.19;73.60
70488;BME280;57976;48.174;16.370;2023-03-21T05:52:53;99355.36;;;11.18;73.86
70488;BME280;57976;48.174;16.370;2023-03-21T05:54:57;99353.34;;;11.18;73.86
70488;BME280;57976;48.174;16.370;2023-03-21T05:57:03;99349.58;;;11.17;73.78
70488;BME280;57976;48.174;16.370;2023-03-21T05:59:27;99350.92;;;11.17;73.88
70488;BME280;57976;48.174;16.370;2023-03-21T06:01:32;99353.52;;;11.18;74.16
70488;BME280;57976;48.174;16.370;2023-03-21T06:03:43;99348.55;;;11.20;74.20
70488;BME280;57976;48.174;16.370;2023-03-21T06:05:58;99350.98;;;11.23;73.98
70488;BME280;57976;48.174;16.370;2023-03-21T06:08:06;99353.48;;;11.26;73.93
70488;BME280;57976;48.174;16.370;2023-03-21T06:10:12;99348.07;;;11.29;73.87
70488;BME280;57976;48.174;16.370;2023-03-21T06:12:17;99347.44;;;11.33;73.63
70488;BME280;57976;48.174;16.370;2023-03-21T06:14:44;99350.90;;;11.35;73.58
70488;BME280;57976;48.174;16.370;2023-03-21T06:16:56;99351.92;;;11.36;73.43
70488;BME280;57976;48.174;16.370;2023-03-21T06:19:01;99355.54;;;11.35;73.59
70488;BME280;57976;48.174;16.370;2023-03-21T06:21:13;99350.90;;;11.36;73.53
70488;BME280;57976;48.174;16.370;2023-03-21T06:23:18;99349.42;;;11.39;73.66
70488;BME280;57976;48.174;16.370;2023-03-21T06:25:25;99348.39;;;11.42;73.47
70488;BME280;57976;48.174;16.370;2023-03-21T06:27:30;99354.84;;;11.44;73.34
70488;BME280;57976;48.174;16.370;2023-03-21T06:29:35;99356.65;;;11.49;73.14
70488;BME280;57976;48.174;16.370;2023-03-21T06:31:40;99355.70;;;11.51;72.99
70488;BME280;57976;48.174;16.370;2023-03-21T06:33:45;99358.81;;;11.55;72.94
70488;BME280;57976;48.174;16.370;2023-03-21T06:35:53;99362.63;;;11.58;73.10
70488;BME280;57976;48.174;16.370;2023-03-21T06:37:58;99365.27;;;11.61;72.76
70488;BME280;57976;48.174;16.370;2023-03-21T06:40:05;99363.08;;;11.64;72.65
70488;BME280;57976;48.174;16.370;2023-03-21T06:42:10;99369.71;;;11.68;72.45
70488;BME280;57976;48.174;16.370;2023-03-21T06:44:15;99371.81;;;11.74;72.31
70488;BME280;57976;48.174;16.370;2023-03-21T06:46:25;99368.72;;;11.78;71.81
70488;BME280;57976;48.174;16.370;2023-03-21T06:48:30;99371.96;;;11.83;71.78
70488;BME280;57976;48.174;16.370;2023-03-21T06:50:36;99373.56;;;11.87;71.69
70488;BME280;57976;48.174;16.370;2023-03-21T06:52:40;99370.39;;;11.91;71.53
70488;BME280;57976;48.174;16.370;2023-03-21T06:54:46;99372.96;;;11.97;71.10
70488;BME280;57976;48.174;16.370;2023-03-21T06:56:54;99370.49;;;12.02;70.65
70488;BME280;57976;48.174;16.370;2023-03-21T06:59:02;99386.13;;;12.07;70.36
70488;BME280;57976;48.174;16.370;2023-03-21T07:01:22;99381.65;;;12.07;69.95
70488;BME280;57976;48.174;16.370;2023-03-21T07:03:36;99379.80;;;12.08;69.94
70488;BME280;57976;48.174;16.370;2023-03-21T07:05:42;99376.30;;;12.13;70.02
70488;BME280;57976;48.174;16.370;2023-03-21T07:07:47;99379.61;;;12.19;69.94
70488;BME280;57976;48.174;16.370;2023-03-21T07:09:51;99380.16;;;12.28;69.40
70488;BME280;57976;48.174;16.370;2023-03-21T07:11:57;99374.05;;;12.34;69.03
70488;BME280;57976;48.174;16.370;2023-03-21T07:14:06;99375.55;;;12.39;68.32
70488;BME280;57976;48.174;16.370;2023-03-21T07:16:11;99377.67;;;12.46;67.98
70488;BME280;57976;48.174;16.370;2023-03-21T07:18:16;99373.48;;;12.50;67.64
70488;BME280;57976;48.174;16.370;2023-03-21T07:20:21;99368.25;;;12.55;67.39
70488;BME280;57976;48.174;16.370;2023-03-21T07:22:26;99370.87;;;12.61;67.20
70488;BME280;57976;48.174;16.370;2023-03-21T07:24:30;99374.65;;;12.68;67.17
70488;BME280;57976;48.174;16.370;2023-03-21T07:26:35;99374.45;;;12.74;66.58
70488;BME280;57976;48.174;16.370;2023-03-21T07:28:42;99371.95;;;12.82;66.34
70488;BME280;57976;48.174;16.370;2023-03-21T07:30:53;99372.25;;;12.89;65.27
70488;BME280;57976;48.174;16.370;2023-03-21T07:32:58;99367.64;;;12.96;65.22
70488;BME280;57976;48.174;16.370;2023-03-21T07:35:05;99369.09;;;13.00;64.61
70488;BME280;57976;48.174;16.370;2023-03-21T07:37:10;99367.80;;;13.02;64.56
70488;BME280;57976;48.174;16.370;2023-03-21T07:39:15;99367.10;;;13.06;63.96
70488;BME280;57976;48.174;16.370;2023-03-21T07:41:19;99372.00;;;13.13;63.22
70488;BME280;57976;48.174;16.370;2023-03-21T07:43:26;99369.86;;;13.18;63.11
70488;BME280;57976;48.174;16.370;2023-03-21T07:45:31;99370.42;;;13.23;62.56
70488;BME280;57976;48.174;16.370;2023-03-21T07:47:38;99370.63;;;13.26;62.39
70488;BME280;57976;48.174;16.370;2023-03-21T07:49:43;99368.23;;;13.28;61.94
70488;BME280;57976;48.174;16.370;2023-03-21T07:51:47;99368.38;;;13.32;62.28
70488;BME280;57976;48.174;16.370;2023-03-21T07:53:52;99369.77;;;13.37;62.01
70488;BME280;57976;48.174;16.370;2023-03-21T07:55:57;99370.79;;;13.44;61.32
70488;BME280;57976;48.174;16.370;2023-03-21T07:58:04;99368.60;;;13.45;61.47
70488;BME280;57976;48.174;16.370;2023-03-21T08:00:11;99373.61;;;13.50;61.55
70488;BME280;57976;48.174;16.370;2023-03-21T08:02:19;99370.27;;;13.56;61.05
70488;BME280;57976;48.174;16.370;2023-03-21T08:04:24;99370.41;;;13.60;60.70
70488;BME280;57976;48.174;16.370;2023-03-21T08:06:29;99365.79;;;13.61;60.84
70488;BME280;57976;48.174;16.370;2023-03-21T08:08:33;99362.28;;;13.65;61.05
70488;BME280;57976;48.174;16.370;2023-03-21T08:10:38;99360.70;;;13.73;61.19
70488;BME280;57976;48.174;16.370;2023-03-21T08:12:45;99362.30;;;13.81;60.50
70488;BME280;57976;48.174;16.370;2023-03-21T08:14:50;99360.85;;;13.88;60.17
70488;BME280;57976;48.174;16.370;2023-03-21T08:16:58;99363.77;;;13.95;60.00
70488;BME280;57976;48.174;16.370;2023-03-21T08:19:02;99365.53;;;14.00;59.24
70488;BME280;57976;48.174;16.370;2023-03-21T08:21:07;99362.86;;;14.04;58.60
70488;BME280;57976;48.174;16.370;2023-03-21T08:23:13;99358.52;;;14.09;58.92
70488;BME280;57976;48.174;16.370;2023-03-21T08:25:19;99361.92;;;14.11;58.29
70488;BME280;57976;48.174;16.370;2023-03-21T08:27:25;99358.48;;;14.17;58.67
70488;BME280;57976;48.174;16.370;2023-03-21T08:29:29;99363.41;;;14.26;58.16
70488;BME280;57976;48.174;16.370;2023-03-21T08:31:34;99358.65;;;14.37;57.99
70488;BME280;57976;48.174;16.370;2023-03-21T08:33:39;99360.05;;;14.48;57.54
70488;BME280;57976;48.174;16.370;2023-03-21T08:35:45;99362.37;;;14.60;57.07
70488;BME280;57976;48.174;16.370;2023-03-21T08:37:50;99354.40;;;14.72;57.21
70488;BME280;57976;48.174;16.370;2023-03-21T08:39:55;99354.63;;;14.86;57.36
70488;BME280;57976;48.174;16.370;2023-03-21T08:41:59;99357.44;;;15.01;56.05
70488;BME280;57976;48.174;16.370;2023-03-21T08:44:05;99352.73;;;15.06;55.85
70488;BME280;57976;48.174;16.370;2023-03-21T08:46:10;99352.37;;;15.11;55.28
70488;BME280;57976;48.174;16.370;2023-03-21T08:48:14;99357.36;;;15.17;54.64
70488;BME280;57976;48.174;16.370;2023-03-21T08:50:21;99353.56;;;15.25;54.70
70488;BME280;57976;48.174;16.370;2023-03-21T08:52:26;99352.54;;;15.30;53.93
70488;BME280;57976;48.174;16.370;2023-03-21T08:54:31;99352.83;;;15.35;53.88
70488;BME280;57976;48.174;16.370;2023-03-21T08:56:36;99343.50;;;15.39;54.40
70488;BME280;57976;48.174;16.370;2023-03-21T08:58:41;99347.08;;;15.51;54.23
70488;BME280;57976;48.174;16.370;2023-03-21T09:00:45;99348.47;;;15.59;53.51
70488;BME280;57976;48.174;16.370;2023-03-21T09:02:50;99355.55;;;15.57;53.42
70488;BME280;57976;48.174;16.370;2023-03-21T09:04:55;99357.65;;;15.48;53.57
70488;BME280;57976;48.174;16.370;2023-03-21T09:07:00;99342.25;;;15.44;54.33
70488;BME280;57976;48.174;16.370;2023-03-21T09:09:05;99349.68;;;15.47;53.89
70488;BME280;57976;48.174;16.370;2023-03-21T09:11:10;99349.11;;;15.50;53.82
70488;BME280;57976;48.174;16.370;2023-03-21T09:13:15;99342.42;;;15.52;53.98
70488;BME280;57976;48.174;16.370;2023-03-21T09:15:20;99344.64;;;15.53;54.03
70488;BME280;57976;48.174;16.370;2023-03-21T09:17:25;99342.87;;;15.55;54.28
70488;BME280;57976;48.174;16.370;2023-03-21T09:19:30;99342.39;;;15.59;53.43
70488;BME280;57976;48.174;16.370;2023-03-21T09:21:35;99338.65;;;15.60;53.53
70488;BME280;57976;48.174;16.370;2023-03-21T09:23:40;99339.38;;;15.61;53.18
70488;BME280;57976;48.174;16.370;2023-03-21T09:25:48;99338.33;;;15.62;53.24
70488;BME280;57976;48.174;16.370;2023-03-21T09:27:55;99339.15;;;15.65;53.36
70488;BME280;57976;48.174;16.370;2023-03-21T09:30:00;99336.92;;;15.67;52.97
70488;BME280;57976;48.174;16.370;2023-03-21T09:32:05;99339.88;;;15.71;53.15
70488;BME280;57976;48.174;16.370;2023-03-21T09:34:09;99343.30;;;15.73;52.61
70488;BME280;57976;48.174;16.370;2023-03-21T09:36:14;99337.16;;;15.70;52.47
70488;BME280;57976;48.174;16.370;2023-03-21T09:38:19;99334.33;;;15.68;52.64
70488;BME280;57976;48.174;16.370;2023-03-21T09:40:38;99330.69;;;15.69;52.59
70488;BME280;57976;48.174;16.370;2023-03-21T09:42:57;99329.58;;;15.65;52.92
70488;BME280;57976;48.174;16.370;2023-03-21T09:45:14;99329.03;;;15.67;52.66
70488;BME280;57976;48.174;16.370;2023-03-21T09:47:23;99324.40;;;15.66;52.82
70488;BME280;57976;48.174;16.370;2023-03-21T09:49:30;99326.39;;;15.62;52.98
70488;BME280;57976;48.174;16.370;2023-03-21T09:51:38;99326.39;;;15.62;52.85
70488;BME280;57976;48.174;16.370;2023-03-21T09:53:45;99324.48;;;15.62;52.74
70488;BME280;57976;48.174;16.370;2023-03-21T09:55:51;99325.27;;;15.67;53.01
70488;BME280;57976;48.174;16.370;2023-03-21T09:58:03;99319.92;;;15.75;52.86
70488;BME280;57976;48.174;16.370;2023-03-21T10:00:14;99316.34;;;15.80;52.51
70488;BME280;57976;48.174;16.370;2023-03-21T10:02:31;99310.77;;;15.88;52.06
70488;BME280;57976;48.174;16.370;2023-03-21T10:04:36;99307.48;;;15.94;52.29
70488;BME280;57976;48.174;16.370;2023-03-21T10:06:42;99308.64;;;16.01;52.25
70488;BME280;57976;48.174;16.370;2023-03-21T10:08:47;99308.34;;;16.10;51.59
70488;BME280;57976;48.174;16.370;2023-03-21T10:10:57;99307.24;;;16.19;50.70
70488;BME280;57976;48.174;16.370;2023-03-21T10:13:05;99311.70;;;16.24;50.30
70488;BME280;57976;48.174;16.370;2023-03-21T10:15:19;99300.50;;;16.28;50.35
70488;BME280;57976;48.174;16.370;2023-03-21T10:17:28;99299.08;;;16.34;49.97
70488;BME280;57976;48.174;16.370;2023-03-21T10:19:34;99293.91;;;16.40;49.84
70488;BME280;57976;48.174;16.370;2023-03-21T10:21:44;99295.82;;;16.47;49.48
70488;BME280;57976;48.174;16.370;2023-03-21T10:24:11;99290.75;;;16.46;49.04
70488;BME280;57976;48.174;16.370;2023-03-21T10:26:16;99285.55;;;16.44;49.16
70488;BME280;57976;48.174;16.370;2023-03-21T10:28:27;99283.70;;;16.46;49.57
70488;BME280;57976;48.174;16.370;2023-03-21T10:30:41;99288.52;;;16.57;49.19
70488;BME280;57976;48.174;16.370;2023-03-21T10:32:50;99292.46;;;16.61;48.30
70488;BME280;57976;48.174;16.370;2023-03-21T10:34:57;99286.17;;;16.58;48.50
70488;BME280;57976;48.174;16.370;2023-03-21T10:37:06;99281.37;;;16.57;48.80
70488;BME280;57976;48.174;16.370;2023-03-21T10:39:19;99295.64;;;16.55;48.72
70488;BME280;57976;48.174;16.370;2023-03-21T10:41:25;99296.16;;;16.47;49.12
70488;BME280;57976;48.174;16.370;2023-03-21T10:43:35;99287.36;;;16.44;49.44
70488;BME280;57976;48.174;16.370;2023-03-21T10:45:40;99291.64;;;16.42;48.98
70488;BME280;57976;48.174;16.370;2023-03-21T10:47:48;99297.36;;;16.37;49.02
70488;BME280;57976;48.174;16.370;2023-03-21T10:49:54;99296.08;;;16.35;49.26
70488;BME280;57976;48.174;16.370;2023-03-21T10:52:13;99290.20;;;16.40;49.18
70488;BME280;57976;48.174;16.370;2023-03-21T10:54:23;99290.92;;;16.49;49.22
70488;BME280;57976;48.174;16.370;2023-03-21T10:56:33;99293.10;;;16.51;48.46
70488;BME280;57976;48.174;16.370;2023-03-21T10:58:43;99284.98;;;16.57;47.77
70488;BME280;57976;48.174;16.370;2023-03-21T11:00:48;99279.51;;;16.64;48.27
70488;BME280;57976;48.174;16.370;2023-03-21T11:02:57;99271.14;;;16.71;48.22
70488;BME280;57976;48.174;16.370;2023-03-21T11:05:12;99267.58;;;16.82;48.63
70488;BME280;57976;48.174;16.370;2023-03-21T11:07:26;99267.95;;;16.92;48.72
70488;BME280;57976;48.174;16.370;2023-03-21T11:09:46;99270.94;;;17.00;48.47
70488;BME280;57976;48.174;16.370;2023-03-21T11:11:53;99267.20;;;16.95;47.93
70488;BME280;57976;48.174;16.370;2023-03-21T11:14:00;99267.17;;;16.90;48.14
70488;BME280;57976;48.174;16.370;2023-03-21T11:16:08;99269.52;;;16.89;47.61
70488;BME280;57976;48.174;16.370;2023-03-21T11:18:20;99267.41;;;16.88;47.81
70488;BME280;57976;48.174;16.370;2023-03-21T11:20:27;99272.06;;;16.86;47.70
70488;BME280;57976;48.174;16.370;2023-03-21T11:22:40;99260.88;;;16.84;47.89